To NAV CANADA Home Page Login to a new session Search on AWWS site Disclaimer Vers la page française équivalente Tips FAQ What's new on the site To the Forecasts and Observations / NOTAM section To "File a Flight Plan" website Publications and other links Update of the User's profile FIC Telephone Numbers My Weather Data Folder Route Weather Data Regional Weather Data Local Weather Data To the Forecasts and Observations / NOTAM section
Request Generated 01/21/2021 at 00:43:46 UTC . Weather information available at that time is displayed.


Save this request

METAR/TAF

ESTEVAN REGIONAL/SK    (show WxCam)

METAR CYEN 210000Z AUTO 27020G28KT 9SM CLR M02/M07 A2958 RMK SLP049=
METAR CYEN 202300Z AUTO 28019G27KT 9SM CLR M01/M07 A2958 RMK SLP047=
METAR CYEN 202200Z AUTO 30024G36KT 9SM CLR M00/M06 A2957 RMK SLP041=

*** REMARK        : Forecast period has ended; this was the last TAF issued
*** REMARQUE : La période de prévision est échue; ceci était le dernier TAF qui a été émis
TAF CYEN 201738Z 2018/2024 30035G45KT P6SM FEW080
FM202000 30030G40KT P6SM SCT030 TEMPO 2020/2023 BKN025
FM202300 29025G35KT P6SM BKN025 TEMPO 2023/2024 BKN020
RMK FCST BASED ON AUTO OBS. NXT FCST WILL BE ISSUED AT 211145Z=

MOOSE JAW/AIR VICE MARSHAL C.M. MCEWEN/SK    

CYMJ - METAR not available

TAF AMD CYMJ 202025Z 2019/2106 FCST CNCLD DUE END OF FLYING PROGRAM
RMK NXT FCST WILL BE ISSUED AT 211115Z=

REGINA INTL/SK    

METAR CYQR 210000Z 28018G23KT 15SM FEW045 FEW087 SCT210 M02/M06 A2958 RMK SC1AC1CI4 SC TR AC TR SLP049=
METAR CYQR 202300Z 28021G28KT 15SM DRSN BKN047 BKN140 M02/M06 A2958 RMK SC6AC1 AC TR SLP045=
METAR CYQR 202200Z 28019G25KT 15SM DRSN FEW066 BKN210 M01/M06 A2958 RMK AC1CI5 SLP045=

TAF CYQR 202338Z 2100/2124 28020G30KT P6SM BKN040
FM210300 30020G30KT P6SM BKN030 TEMPO 2103/2110 2SM -SHSN BKN020
BECMG 2107/2109 33018G28KT
FM211000 33015G25KT P6SM BKN040 TEMPO 2110/2113 BKN020
FM211300 33015G25KT P6SM BKN015 TEMPO 2113/2124 OVC008
RMK NXT FCST BY 210600Z=

SASKATOON/JOHN G. DIEFENBAKER INTL/SK    

METAR CYXE 210000Z 29022KT 15SM SCT080 BKN120 M01/M06 A2954 RMK AC3AS4 SLP029=
METAR CYXE 202300Z 29023G29KT 15SM FEW070 BKN100 M00/M06 A2952 RMK AC2AC4 SLP024=
METAR CYXE 202200Z 29025G31KT 15SM SCT070 OVC130 M01/M05 A2950 RMK AC3AS5 SLP017=

TAF CYXE 202338Z 2100/2124 29022G32KT P6SM SCT025 BKN100 TEMPO
2100/2110 2SM -SHSN BKN020
BECMG 2102/2104 34012KT
FM211000 34012KT P6SM SCT025 TEMPO 2110/2122 BKN020
FM212200 24008KT P6SM BKN025 BKN080 TEMPO 2122/2124 4SM -SN
RMK NXT FCST BY 210600Z=

YORKTON MUNICIPALITY/SK    (show WxCam)

SPECI CYQV 210034Z AUTO 28021G29KT 5SM -SN OVC050 M02/M04 A2940 RMK SLP983=
SPECI CYQV 210023Z AUTO 28021G29KT 9SM -SN BKN055 OVC069 M02/M04 A2941 RMK SLP985=
METAR CYQV 210000Z AUTO 28019G26KT 9SM FEW055 SCT081 M02/M05 A2941 RMK SLP984=
METAR CYQV 202300Z AUTO 28020G27KT 9SM OVC034 M01/M05 A2941 RMK SLP983=
METAR CYQV 202200Z AUTO 28024G32KT 9SM OVC036 M00/M04 A2939 RMK SLP977=

TAF CYQV 202338Z 2100/2106 29020G30KT P6SM BKN040 TEMPO 2100/2103 4SM
-SN BKN020
FM210300 29018G28KT P6SM BKN015 OVC025 TEMPO 2103/2106 2SM -SHSN
OVC008
RMK FCST BASED ON AUTO OBS. NXT FCST WILL BE ISSUED AT 211145Z=

BRANDON MUNICIPALITY/MB    

METAR CYBR 210000Z 29023G28KT 15SM FEW030 M02/M05 A2944 RMK SC2 SLP992=
METAR CYBR 202300Z 29022G29KT 15SM SCT030 M01/M04 A2942 RMK SC3 SLP984=
METAR CYBR 202200Z 29031G39KT 15SM BKN029 01/M03 A2938 RMK SC7 SLP972=

TAF CYBR 202338Z 2100/2112 29020G30KT P6SM SCT030 TEMPO 2100/2104
BKN020
FM210400 29020G30KT P6SM BKN025 TEMPO 2104/2112 4SM -SN BKN020
BECMG 2106/2108 01015G25KT
RMK NXT FCST BY 210600Z=

PORTAGE LA PRAIRIE/SOUTHPORT/MB    

METAR CYPG 210000Z 27022G27KT 15SM FEW075 02/M02 A2936 RMK AC2 SLP954=
METAR CYPG 202300Z 27024G30KT 15SM FEW015 BKN058 03/M01 A2934 RMK SC2SC6 SLP947=
METAR CYPG 202200Z 27021G26KT 12SM FEW015 BKN061 BKN075 03/M01 A2931 RMK SC2SC5AC1 SLP936=

TAF CYPG 202330Z 2100/2112 27020G30KT P6SM FEW015 BKN060 TEMPO
2100/2108 BKN015 OVC060
BECMG 2102/2104 29012KT
FM210800 29012KT 6SM -SN SCT020 OVC030 TEMPO 2108/2112 3SM -SN
OVC020
BECMG 2108/2110 35015G25KT
RMK NXT FCST BY 210600Z=

WINNIPEG/JAMES ARMSTRONG RICHARDSON INTL/MB    

METAR CYWG 210000Z 29010KT 15SM BKN038 BKN060 01/M00 A2933 RMK SC5SC2 OCNL -SHSN CVCTV CLD EMBD SLP945=
METAR CYWG 202300Z 30014G21KT 15SM FEW014 BKN059 BKN083 BKN250 01/M00 A2931 RMK SF1SC5AC1CI1 SF TR OCNL -SHSN CVCTV CLD EMBD SLP939=
SPECI CYWG 202242Z 31019G27KT 5SM -SHSN FEW012 SCT025 BKN059 01/M00 A2929 RMK SF1SC3SC4 SF TR CVCTV CLD EMBD SLP935=
SPECI CYWG 202240Z 30019G27KT 1SM R31/P6000FT/U R36/P6000FT/U -SHSN OVC025 01/M01 A2930 RMK SN4SC4 CVCTV CLD EMBD PRESRR SLP938=
SPECI CYWG 202237Z 31022G27KT 1 1/2SM -RASN OVC025 01/M00 A2930 RMK SN4SC4 SLP936=
SPECI CYWG 202212Z 30023G29KT 15SM -RASN FEW013 OVC036 01/M01 A2927 RMK SF1SC8 SF TR PRESRR SLP927=
METAR CYWG 202200Z 30020KT 15SM FEW014 BKN044 01/M01 A2926 RMK SF1SC7 SF TR SLP924=

TAF CYWG 202338Z 2100/2124 33015G25KT P6SM SCT020 BKN040 TEMPO
2100/2108 4SM -SHSN BKN015 OVC040
BECMG 2105/2107 36020G30KT
FM210800 36020G30KT P6SM FEW008 BKN040 TEMPO 2108/2112 1SM -SHSN
BKN008 OVC020
FM211200 35018G28KT P6SM BKN015 TEMPO 2112/2121 BKN025
FM212100 35010G20KT P6SM SCT020 TEMPO 2121/2124 BKN020
RMK NXT FCST BY 210600Z=


Your time UTC time
Weather data provided by Environment Canada and NAV CANADA